• Join FlightAware (Why Join?)
  • Login
  • US Flag 
07:21PM EDT


 

Airport Tracker/Info


-or-


 

Live Flight TrackerFlight Track Log ✈ ASH3770 ✈ 16-May-2013 ✈ KPIT - KORD

Flight Track Log - Related Links

Times and Time Zones

All times are in EDT time to prevent confusion due to time zone crossing. See the ASH3770 flight status page for this flight to view local times or setup timezone preferences in your user account.

Time Position Orientation Groundspeed Altitude Reporting Facility
EDT Latitude Longitude Course Direction KTS MPH feet Rate Location/Type
06:41PM 40.5319 -80.4575 282° West 257 296 7,400  Level Cleveland Center
06:42PM 40.5528 -80.5531 286° West 269 310 10,300 2,400 Climbing Cleveland Center
06:43PM 40.5778 -80.6597 287° West 284 327 12,300 2,100 Climbing Cleveland Center
06:44PM 40.6006 -80.7664 286° West 298 343 14,600 2,160 Climbing Cleveland Center
06:45PM 40.6369 -80.9477 288° West  Level FlightAware Approximate
06:45PM 40.6256 -80.8786 286° West 310 357 16,700  Level Cleveland Center
06:46PM 40.6617 -81.0701 282° West  Level FlightAware Approximate
06:46PM 40.6500 -80.9992 285° West 321 369 18,300  Level Cleveland Center
06:47PM 40.6786 -81.1333 286° West 341 392 20,600 1,620 Climbing Cleveland Center
06:48PM 40.7050 -81.2594 285° West 348 400 21,600 1,140 Climbing Cleveland Center
06:49PM 40.7333 -81.3942 286° West 370 426 22,900 1,200 Climbing Cleveland Center
06:50PM 40.7556 -81.5150 284° West 380 437 24,000 1,080 Climbing Cleveland Center
06:51PM 40.7792 -81.6553 283° West 385 443 25,100 1,140 Climbing Cleveland Center
06:52PM 40.8028 -81.7956 283° West 396 456 26,300 900 Climbing Cleveland Center
06:53PM 40.8219 -81.9439 280° West 402 463 26,900 600 Climbing Cleveland Center
06:54PM 40.8428 -82.1092 280° West 419 482 27,600 780 Climbing Cleveland Center
06:55PM 40.8656 -82.2633 281° West 427 491 28,500 1,080 Climbing Cleveland Center
06:56PM 40.8842 -82.4150 279° West 432 497 29,800 1,200 Climbing Cleveland Center
06:57PM 40.9025 -82.5694 279° West 420 483 31,000 1,200 Climbing Cleveland Center
06:58PM 40.9206 -82.7156 279° West 420 483 32,200 1,200 Climbing Cleveland Center
06:59PM 40.9386 -82.8592 279° West 404 465 33,400 900 Climbing Cleveland Center
07:00PM 40.9567 -83.0000 280° West 398 458 34,000 300 Climbing Cleveland Center
07:01PM 40.9742 -83.1519 279° West 403 464 34,000  Level Cleveland Center
07:02PM 40.9942 -83.2819 282° West 407 468 34,000  Level Cleveland Center
07:03PM 41.0114 -83.4314 279° West 412 474 34,000  Level Cleveland Center
07:04PM 41.0283 -83.5806 279° West 412 474 34,000  Level Cleveland Center
07:05PM 41.0489 -83.7469 279° West 412 474 34,000  Level Cleveland Center
07:06PM 41.0633 -83.8964 277° West 417 480 34,000  Level Cleveland Center
07:07PM 41.0817 -84.0542 279° West 417 480 34,000  Level Cleveland Center
07:08PM 41.0911 -84.1394 278° West 429 494 34,000  Level Chicago Center
07:09PM 41.1083 -84.2961 278° West 429 494 34,000  Level Chicago Center
07:10PM 41.1247 -84.4467 278° West 418 481 34,000  Level Chicago Center
07:11PM 41.1397 -84.5858 278° West 385 443 34,000  Level Chicago Center
07:12PM 41.1544 -84.7267 278° West 383 441 34,000  Level Chicago Center
07:13PM 41.1697 -84.8681 278° West 387 445 34,000 -360 Level Chicago Center
07:14PM 41.1878 -85.0389 278° West 388 447 33,300 -480 Descending Chicago Center
07:15PM 41.2022 -85.1783 278° West 384 442 33,000 -480 Descending Chicago Center
07:16PM 41.2153 -85.3203 277° West 384 442 32,400 -1,200 Descending Chicago Center
07:17PM 41.2300 -85.4708 277° West 401 461 30,600 -1,860 Descending Chicago Center
07:18PM 41.2444 -85.6172 278° West 401 461 28,600 -1,980 Descending Chicago Center
07:19PM 41.2569 -85.7586 277° West 388 447 26,600 -1,800 Descending Chicago Center
07:20PM 41.2703 -85.8978 277° West 381 438 25,000 -1,200 Descending Chicago Center
07:21PM 41.2917 -86.0697 279° West 398 458 24,200 -1,080 Descending Chicago Center
07:22PM 41.3264 -86.2094 288° West 401 461 22,800 -1,380 Descending Chicago Center
07:23PM 41.3597 -86.3444 288° West 386 444 21,400 -1,380 Descending Chicago Center
07:24PM 41.3939 -86.4797 289° West 384 442 20,000 -1,440 Descending Chicago Center
07:25PM 41.4269 -86.6150 288° West 384 442 18,500 -1,620 Descending Chicago Center
07:26PM 41.4675 -86.7686 289° West 379 436 16,700 -1,620 Descending Chicago Center
07:27PM 41.4972 -86.8961 287° West 367 422 15,200 -1,500 Descending Chicago Center
07:29PM 41.5281 -87.0197 288° West 356 410 13,700 -1,620 Descending Chicago Center
07:29PM 41.5500 -87.1333 285° West 342 394 12,300 -1,440 Descending Chicago TRACON
07:30PM 41.5833 -87.2500 291° West 333 383 11,100 -660 Descending Chicago TRACON
07:31PM 41.6333 -87.3500 304° West 331 381 11,000 -120 Descending Chicago TRACON
07:32PM 41.6497 -87.3756 311° West 330 380 11,000  Level Chicago Center
07:33PM 41.7006 -87.4775 304° West 332 382 11,000  Level Chicago Center
07:34PM 41.7531 -87.5797 305° West 337 388 11,000 -180 Level Chicago Center
07:34PM 41.7833 -87.6500 300° West 315 362 10,800 -1,200 Descending Chicago TRACON
07:35PM 41.8333 -87.7333 309° West 282 325 9,200 -900 Descending Chicago TRACON
07:36PM 41.8833 -87.8167 309° West 289 333 9,100 -720 Descending Chicago TRACON
07:37PM 41.8833 -87.9167 270° West 288 331 7,800 -1,080 Descending Chicago TRACON
07:38PM 41.8833 -88.0167 270° West 250 288 7,000 -780 Descending Chicago TRACON
07:39PM 41.8833 -88.1167 270° West 235 270 6,200 -960 Descending Chicago TRACON
07:40PM 41.8847 -88.1581 273° West 232 267 5,500 -780 Descending Chicago Center
07:41PM 41.8850 -88.2428 270° West 229 264 5,000 -780 Descending Chicago Center
07:42PM 41.9433 -88.2578 349° North 243 280 4,000 -540 Descending Chicago Center
07:43PM 41.9631 -88.1794 71° East 229 264 4,000 -420 Level Chicago Center
07:44PM 41.9686 -88.1050 84° East 214 246 3,200 -1,020 Descending Chicago Center
07:44PM 41.9667 -88.0667 94° East 174 200 2,700 -1,020 Descending Chicago TRACON
07:45PM 41.9667 -88.0167 90° East 157 181 2,000 -780 Descending Chicago TRACON
07:46PM 41.9667 -87.9667 90° East 126 145 1,300 -720 Descending Chicago TRACON
07:49PM 41.9667 -87.9000 70° East  Level FlightAware Approximate